createdAt,value
2019-05-01T00:00:50.862Z,56.37
2019-05-01T00:03:28.598Z,55.27
2019-05-01T00:05:59.749Z,55.27
2019-05-01T00:08:32.130Z,54.70
2019-05-01T00:11:01.718Z,55.13
2019-05-01T00:13:32.834Z,53.23
2019-05-01T00:16:02.294Z,54.43
2019-05-01T00:18:31.854Z,52.67
2019-05-01T00:21:01.673Z,53.77
2019-05-01T00:23:31.173Z,54.00
2019-05-01T00:26:00.696Z,53.50
2019-05-01T00:28:30.266Z,54.57
2019-05-01T00:30:59.862Z,52.27
2019-05-01T00:33:29.402Z,53.47
2019-05-01T00:35:58.881Z,54.77
2019-05-01T00:38:28.401Z,56.13
2019-05-01T00:40:57.885Z,56.40
2019-05-01T00:43:27.353Z,52.40
2019-05-01T00:45:56.828Z,55.33
2019-05-01T00:48:26.350Z,53.57
2019-05-01T00:50:55.919Z,57.03
2019-05-01T00:53:25.389Z,58.10
2019-05-01T00:56:11.499Z,60.00
2019-05-01T00:59:00.959Z,55.40
2019-05-01T01:01:32.023Z,59.03
2019-05-01T01:04:01.526Z,54.80
2019-05-01T01:06:31.045Z,55.77
2019-05-01T01:09:00.655Z,57.80
2019-05-01T01:11:31.718Z,57.20
2019-05-01T01:14:01.176Z,58.10
2019-05-01T01:16:30.697Z,59.33
2019-05-01T01:19:00.119Z,56.73
2019-05-01T01:21:29.561Z,56.40
2019-05-01T01:23:59.328Z,58.73
2019-05-01T01:26:29.027Z,54.63
2019-05-01T01:28:58.593Z,58.00
2019-05-01T01:31:28.122Z,55.23
2019-05-01T01:33:58.687Z,59.03
2019-05-01T01:36:28.133Z,59.13
2019-05-01T01:38:57.719Z,60.30
2019-05-01T01:41:27.285Z,58.93
2019-05-01T01:44:01.247Z,61.47
2019-05-01T01:46:32.488Z,57.80
2019-05-01T01:49:02.061Z,60.90
2019-05-01T01:51:31.756Z,57.57
2019-05-01T01:54:02.396Z,55.30
2019-05-01T01:56:32.881Z,53.03
2019-05-01T01:59:02.636Z,59.23
2019-05-01T02:01:42.902Z,53.67
2019-05-01T02:04:20.628Z,58.30
2019-05-01T02:06:50.749Z,55.53
2019-05-01T02:09:20.280Z,53.23
2019-05-01T02:11:49.885Z,57.80
2019-05-01T02:14:19.368Z,56.70
2019-05-01T02:16:49.962Z,54.20
2019-05-01T02:19:19.380Z,52.30
2019-05-01T02:21:48.975Z,52.33
2019-05-01T02:24:18.475Z,50.73
2019-05-01T02:26:52.588Z,51.20
2019-05-01T02:29:27.322Z,49.97
2019-05-01T02:31:58.399Z,49.57
2019-05-01T02:34:29.269Z,45.73
2019-05-01T02:37:03.953Z,50.63
2019-05-01T02:39:35.515Z,47.10
2019-05-01T02:42:06.410Z,42.43
2019-05-01T02:44:42.031Z,53.07
2019-05-01T02:47:14.545Z,48.67
2019-05-01T02:49:52.765Z,45.40
2019-05-01T02:52:25.643Z,45.57
2019-05-01T02:54:58.329Z,46.37
2019-05-01T02:57:28.587Z,45.30
2019-05-01T02:59:59.915Z,48.50
2019-05-01T03:02:30.567Z,47.50
2019-05-01T03:05:01.156Z,49.47
2019-05-01T03:07:34.256Z,50.17
2019-05-01T03:10:08.942Z,49.80
2019-05-01T03:12:39.335Z,46.07
2019-05-01T03:15:09.893Z,48.07
2019-05-01T03:17:47.590Z,47.03
2019-05-01T03:20:35.424Z,48.87
2019-05-01T03:23:16.199Z,50.47
2019-05-01T03:25:45.859Z,43.93
2019-05-01T03:28:15.442Z,47.23
2019-05-01T03:30:45.038Z,47.73
2019-05-01T03:33:14.551Z,50.63
2019-05-01T03:35:44.411Z,46.20
2019-05-01T03:38:14.200Z,43.93
2019-05-01T03:40:43.748Z,44.60
2019-05-01T03:43:13.627Z,43.13
2019-05-01T03:45:43.903Z,48.20
2019-05-01T03:48:13.697Z,45.30
2019-05-01T03:50:46.465Z,48.93
2019-05-01T03:53:14.676Z,47.97
2019-05-01T03:55:44.169Z,46.47
2019-05-01T03:58:14.241Z,50.37
2019-05-01T04:01:01.896Z,45.47
2019-05-01T04:03:45.337Z,49.13
2019-05-01T04:06:14.929Z,47.97
2019-05-01T04:08:44.947Z,44.60
2019-05-01T04:11:14.718Z,46.37
2019-05-01T04:13:44.437Z,50.60
2019-05-01T04:16:14.680Z,48.10
2019-05-01T04:18:44.349Z,49.53
2019-05-01T04:21:13.836Z,49.73
2019-05-01T04:23:43.611Z,52.47
2019-05-01T04:26:13.190Z,51.53
2019-05-01T04:28:50.534Z,54.67
2019-05-01T04:31:32.341Z,51.70
2019-05-01T04:34:06.228Z,55.43
2019-05-01T04:36:47.918Z,55.67
2019-05-01T04:39:17.636Z,50.83
2019-05-01T04:41:47.424Z,54.50
2019-05-01T04:44:17.698Z,52.57
2019-05-01T04:46:47.264Z,58.63
2019-05-01T04:49:18.177Z,55.77
2019-05-01T04:51:48.080Z,56.93
2019-05-01T04:54:17.678Z,60.00
2019-05-01T04:56:48.050Z,59.30
2019-05-01T04:59:17.710Z,60.60
2019-05-01T05:02:02.044Z,58.57
2019-05-01T05:04:32.003Z,54.27
2019-05-01T05:07:01.566Z,55.57
2019-05-01T05:09:45.413Z,59.20
2019-05-01T05:12:28.467Z,51.33
2019-05-01T05:15:00.231Z,55.93
2019-05-01T05:17:29.926Z,55.00
2019-05-01T05:19:59.700Z,60.67
2019-05-01T05:22:30.359Z,54.87
2019-05-01T05:25:00.041Z,54.73
2019-05-01T05:27:30.219Z,53.17
2019-05-01T05:29:59.972Z,54.33
2019-05-01T05:32:30.225Z,59.67
2019-05-01T05:35:06.467Z,57.33
2019-05-01T05:37:42.521Z,59.63
2019-05-01T05:40:12.170Z,53.83
2019-05-01T05:42:41.701Z,61.50
2019-05-01T05:45:11.295Z,61.03
2019-05-01T05:47:40.869Z,62.00
2019-05-01T05:50:12.099Z,61.33
2019-05-01T05:52:53.813Z,57.43
2019-05-01T05:55:39.123Z,55.40
2019-05-01T05:58:13.259Z,52.93
2019-05-01T06:00:46.084Z,54.80
2019-05-01T06:03:35.886Z,51.27
2019-05-01T06:06:14.713Z,55.07
2019-05-01T06:08:46.739Z,58.73
2019-05-01T06:11:36.985Z,53.53
2019-05-01T06:14:13.310Z,53.03
2019-05-01T06:16:56.351Z,49.63
2019-05-01T06:19:39.990Z,47.67
2019-05-01T06:22:21.316Z,51.40
2019-05-01T06:24:58.497Z,43.97
2019-05-01T06:27:29.158Z,42.73
2019-05-01T06:30:00.960Z,33.70
2019-05-01T06:32:33.581Z,30.97
2019-05-01T06:35:03.190Z,32.03
2019-05-01T06:37:51.209Z,32.93
2019-05-01T06:40:23.602Z,33.43
2019-05-01T06:42:53.416Z,34.97
2019-05-01T06:45:24.558Z,36.60
2019-05-01T06:47:58.707Z,33.73
2019-05-01T06:50:37.115Z,31.03
2019-05-01T06:53:06.170Z,29.00
2019-05-01T06:55:36.602Z,30.67
2019-05-01T06:58:06.706Z,33.07
2019-05-01T07:00:39.109Z,29.83
2019-05-01T07:03:11.545Z,28.10
2019-05-01T07:05:44.463Z,24.63
2019-05-01T07:08:23.985Z,28.80
2019-05-01T07:10:45.909Z,28.57
2019-05-01T07:13:15.782Z,25.10
2019-05-01T07:15:45.681Z,27.47
2019-05-01T07:18:18.765Z,28.17
2019-05-01T07:20:51.890Z,26.13
2019-05-01T07:23:22.872Z,23.37
2019-05-01T07:25:52.597Z,22.13
2019-05-01T07:28:23.094Z,21.00
2019-05-01T07:30:55.107Z,19.70
2019-05-01T07:33:25.591Z,21.60
2019-05-01T07:35:55.155Z,19.23
2019-05-01T07:38:24.749Z,20.67
2019-05-01T07:40:54.579Z,19.20
2019-05-01T07:43:42.485Z,18.97
2019-05-01T07:46:18.229Z,17.27
2019-05-01T07:48:45.943Z,17.93
2019-05-01T07:51:15.607Z,19.70
2019-05-01T07:53:45.603Z,19.93
2019-05-01T07:56:17.252Z,19.53
2019-05-01T07:58:51.992Z,19.53
2019-05-01T08:01:26.977Z,20.63
2019-05-01T08:03:56.483Z,19.23
2019-05-01T08:06:26.423Z,19.00
2019-05-01T08:08:55.862Z,20.93
2019-05-01T08:11:25.387Z,22.70
2019-05-01T08:14:01.507Z,18.93
2019-05-01T08:16:26.004Z,17.67
2019-05-01T08:18:59.160Z,19.80
2019-05-01T08:21:30.057Z,20.57
2019-05-01T08:23:59.486Z,108.63
2019-05-01T08:26:29.017Z,21.20
2019-05-01T08:29:06.575Z,18.07
2019-05-01T08:31:52.186Z,17.53
2019-05-01T08:34:33.611Z,17.43
2019-05-01T08:37:03.061Z,17.47
2019-05-01T08:39:32.492Z,17.97
2019-05-01T08:42:03.006Z,17.70
2019-05-01T08:44:34.708Z,19.37
2019-05-01T08:47:25.804Z,16.17
2019-05-01T08:49:55.154Z,18.63
2019-05-01T08:52:26.329Z,18.40
2019-05-01T08:54:55.833Z,22.10
2019-05-01T08:57:29.266Z,17.10
2019-05-01T09:00:00.272Z,20.17
2019-05-01T09:02:28.155Z,19.50
2019-05-01T09:05:02.597Z,20.37
2019-05-01T09:07:28.826Z,20.33
2019-05-01T09:09:58.332Z,19.33
2019-05-01T09:12:27.811Z,18.70
2019-05-01T09:14:57.248Z,18.67
2019-05-01T09:17:26.701Z,18.57
2019-05-01T09:19:56.152Z,21.33
2019-05-01T09:22:27.372Z,21.97
2019-05-01T09:25:00.047Z,20.10
2019-05-01T09:27:31.175Z,21.27
2019-05-01T09:30:21.991Z,22.20
2019-05-01T09:32:54.623Z,18.73
2019-05-01T09:35:23.025Z,21.83
2019-05-01T09:37:52.615Z,22.33
2019-05-01T09:40:25.697Z,22.50
2019-05-01T09:42:59.440Z,25.03
2019-05-01T09:45:26.384Z,21.90
2019-05-01T09:47:58.668Z,24.97
2019-05-01T09:50:30.447Z,21.50
2019-05-01T09:53:07.196Z,23.17
2019-05-01T09:55:38.340Z,22.47
2019-05-01T09:58:08.015Z,23.43
2019-05-01T10:00:37.693Z,23.70
2019-05-01T10:03:07.343Z,21.00
2019-05-01T10:05:37.969Z,24.90
2019-05-01T10:08:08.010Z,22.30
2019-05-01T10:10:37.437Z,22.77
2019-05-01T10:13:07.953Z,21.80
2019-05-01T10:15:37.520Z,20.97
2019-05-01T10:18:09.083Z,20.13
2019-05-01T10:20:45.701Z,20.17
2019-05-01T10:23:16.612Z,19.70
2019-05-01T10:25:49.754Z,19.50
2019-05-01T10:28:20.972Z,20.63
2019-05-01T10:31:11.868Z,18.90
2019-05-01T10:33:50.312Z,18.03
2019-05-01T10:36:25.238Z,23.10
2019-05-01T10:38:54.790Z,20.00
2019-05-01T10:41:27.272Z,20.47
2019-05-01T10:43:56.833Z,20.37
2019-05-01T10:46:26.286Z,20.47
2019-05-01T10:48:57.415Z,19.70
2019-05-01T10:51:28.640Z,19.33
2019-05-01T10:54:00.565Z,20.67
2019-05-01T10:56:30.159Z,19.60
2019-05-01T10:58:59.735Z,20.27
2019-05-01T11:01:31.056Z,19.98
2019-05-01T11:04:00.575Z,20.93
2019-05-01T11:06:30.145Z,20.08
2019-05-01T11:08:59.610Z,20.10
2019-05-01T11:11:29.136Z,19.10
2019-05-01T11:13:58.662Z,19.47
2019-05-01T11:16:28.124Z,19.52
2019-05-01T11:18:57.629Z,19.77
2019-05-01T11:21:30.217Z,20.02
2019-05-01T11:23:59.640Z,20.97
2019-05-01T11:26:29.163Z,20.27
2019-05-01T11:28:58.658Z,17.70
2019-05-01T11:31:48.871Z,17.27
2019-05-01T11:34:29.281Z,18.23
2019-05-01T11:37:16.660Z,17.05
2019-05-01T11:39:59.954Z,17.62
2019-05-01T11:42:29.543Z,18.73
2019-05-01T11:45:00.583Z,18.20
2019-05-01T11:47:30.035Z,18.50
2019-05-01T11:49:59.471Z,18.82
2019-05-01T11:52:29.109Z,16.85
2019-05-01T11:54:58.549Z,16.40
2019-05-01T11:57:28.008Z,15.53
2019-05-01T11:59:57.525Z,17.30
2019-05-01T12:02:27.705Z,16.17
2019-05-01T12:04:57.198Z,15.58
2019-05-01T12:07:26.655Z,15.48
2019-05-01T12:09:56.161Z,16.02
2019-05-01T12:12:27.272Z,16.48
2019-05-01T12:14:56.703Z,15.00
2019-05-01T12:17:28.944Z,16.65
2019-05-01T12:19:58.373Z,17.27
2019-05-01T12:22:27.915Z,16.05
2019-05-01T12:24:58.408Z,15.83
2019-05-01T12:27:27.842Z,17.17
2019-05-01T12:29:57.310Z,16.93
2019-05-01T12:32:26.762Z,17.00
2019-05-01T12:34:56.209Z,16.05
2019-05-01T12:37:27.300Z,16.73
2019-05-01T12:39:56.736Z,14.93
2019-05-01T12:42:27.915Z,16.60
2019-05-01T12:44:57.441Z,16.67
2019-05-01T12:47:40.716Z,17.60
2019-05-01T12:50:10.580Z,22.55
2019-05-01T12:52:44.634Z,16.82
2019-05-01T12:55:31.232Z,17.23
2019-05-01T12:58:00.830Z,24.12
2019-05-01T13:00:55.794Z,17.50
2019-05-01T13:03:25.253Z,17.57
2019-05-01T13:05:54.709Z,19.77
2019-05-01T13:08:26.566Z,19.00
2019-05-01T13:10:56.346Z,22.35
2019-05-01T13:13:25.856Z,21.65
2019-05-01T13:15:55.957Z,22.37
2019-05-01T13:18:27.637Z,17.80
2019-05-01T13:20:57.097Z,19.20
2019-05-01T13:23:26.596Z,45.15
2019-05-01T13:25:57.764Z,21.33
2019-05-01T13:28:34.514Z,19.17
2019-05-01T13:31:11.690Z,21.10
2019-05-01T13:33:43.987Z,20.70
2019-05-01T13:36:13.716Z,19.67
2019-05-01T13:38:43.286Z,26.87
2019-05-01T13:41:14.250Z,20.05
2019-05-01T13:43:44.211Z,21.05
2019-05-01T13:46:13.675Z,22.10
2019-05-01T13:48:43.165Z,21.00
2019-05-01T13:51:12.612Z,20.37
2019-05-01T13:53:42.061Z,20.90
2019-05-01T13:56:11.688Z,21.37
2019-05-01T13:58:42.667Z,21.68
2019-05-01T14:01:12.689Z,21.12
2019-05-01T14:03:42.971Z,20.23
2019-05-01T14:06:12.493Z,20.05
2019-05-01T14:08:42.150Z,20.45
2019-05-01T14:11:11.609Z,21.17
2019-05-01T14:13:41.255Z,21.35
2019-05-01T14:16:10.844Z,20.82
2019-05-01T14:18:42.709Z,19.20
2019-05-01T14:21:20.029Z,21.05
2019-05-01T14:23:51.096Z,20.85
2019-05-01T14:26:20.547Z,19.05
2019-05-01T14:28:49.987Z,20.50
2019-05-01T14:31:19.420Z,19.85
2019-05-01T14:33:49.933Z,19.55
2019-05-01T14:36:20.964Z,20.20
2019-05-01T14:38:50.430Z,21.15
2019-05-01T14:41:22.683Z,20.23
2019-05-01T14:43:52.135Z,20.17
2019-05-01T14:46:21.563Z,20.20
2019-05-01T14:48:51.019Z,21.00
2019-05-01T14:51:21.824Z,21.55
2019-05-01T14:53:51.477Z,20.35
2019-05-01T14:56:20.986Z,21.50
2019-05-01T14:58:50.506Z,21.15
2019-05-01T15:01:20.057Z,20.02
2019-05-01T15:03:51.602Z,23.00
2019-05-01T15:06:21.183Z,20.12
2019-05-01T15:08:50.648Z,19.62
2019-05-01T15:11:22.799Z,19.85
2019-05-01T15:13:54.040Z,19.50
2019-05-01T15:16:41.051Z,19.62
2019-05-01T15:19:18.122Z,19.75
2019-05-01T15:21:50.405Z,20.23
2019-05-01T15:24:19.831Z,18.90
2019-05-01T15:26:51.386Z,20.20
2019-05-01T15:29:20.491Z,20.72
2019-05-01T15:31:49.930Z,22.95
2019-05-01T15:34:19.396Z,18.98
2019-05-01T15:36:48.831Z,21.48
2019-05-01T15:39:19.916Z,19.77
2019-05-01T15:42:06.386Z,21.52
2019-05-01T15:44:40.304Z,20.65
2019-05-01T15:47:09.826Z,20.82
2019-05-01T15:49:39.334Z,21.15
2019-05-01T15:52:08.788Z,20.57
2019-05-01T15:54:38.301Z,20.52
2019-05-01T15:57:07.740Z,21.70
2019-05-01T15:59:37.186Z,21.30
2019-05-01T16:02:09.182Z,22.48
2019-05-01T16:04:40.254Z,22.05
2019-05-01T16:07:09.704Z,20.92
2019-05-01T16:09:40.845Z,22.67
2019-05-01T16:12:27.055Z,23.35
2019-05-01T16:14:56.595Z,22.98
2019-05-01T16:17:26.397Z,21.42
2019-05-01T16:19:58.395Z,23.27
2019-05-01T16:22:27.841Z,22.90
2019-05-01T16:24:57.390Z,23.05
2019-05-01T16:27:26.818Z,24.20
2019-05-01T16:29:56.278Z,23.35
2019-05-01T16:32:25.809Z,21.15
2019-05-01T16:34:55.319Z,23.27
2019-05-01T16:37:24.848Z,22.75
2019-05-01T16:39:58.967Z,22.00
2019-05-01T16:42:30.127Z,22.00
2019-05-01T16:44:59.857Z,23.27
2019-05-01T16:47:29.286Z,27.37
2019-05-01T16:49:58.824Z,23.70
2019-05-01T16:52:29.838Z,21.57
2019-05-01T16:55:00.539Z,25.68
2019-05-01T16:57:31.539Z,23.38
2019-05-01T17:00:02.624Z,23.80
2019-05-01T17:02:47.763Z,23.10
2019-05-01T17:05:19.439Z,23.62
2019-05-01T17:08:07.036Z,25.43
2019-05-01T17:10:47.274Z,22.82
2019-05-01T17:13:17.273Z,23.67
2019-05-01T17:15:48.336Z,24.20
2019-05-01T17:18:18.134Z,23.83
2019-05-01T17:20:50.312Z,23.15
2019-05-01T17:23:19.994Z,23.43
2019-05-01T17:25:51.883Z,24.83
2019-05-01T17:28:21.454Z,24.23
2019-05-01T17:30:53.000Z,24.23
2019-05-01T17:33:22.457Z,23.67
2019-05-01T17:35:55.352Z,23.77
2019-05-01T17:38:27.740Z,24.33
2019-05-01T17:40:58.792Z,23.87
2019-05-01T17:43:29.943Z,23.87
2019-05-01T17:45:59.379Z,23.77
2019-05-01T17:48:34.894Z,27.73
2019-05-01T17:51:04.582Z,24.83
2019-05-01T17:53:34.041Z,23.23
2019-05-01T17:56:09.976Z,23.40
2019-05-01T17:58:40.382Z,24.53
2019-05-01T18:01:33.098Z,22.37
2019-05-01T18:04:00.902Z,23.53
2019-05-01T18:06:31.978Z,23.17
2019-05-01T18:09:03.282Z,24.30
2019-05-01T18:11:34.068Z,21.97
2019-05-01T18:14:05.710Z,22.57
2019-05-01T18:16:34.973Z,22.43
2019-05-01T18:19:09.836Z,22.67
2019-05-01T18:21:38.680Z,23.30
2019-05-01T18:24:23.038Z,21.97
2019-05-01T18:27:00.393Z,21.50
2019-05-01T18:29:39.759Z,20.30
2019-05-01T18:32:10.232Z,21.97
2019-05-01T18:34:39.658Z,21.27
2019-05-01T18:37:12.365Z,20.30
2019-05-01T18:39:46.507Z,19.83
2019-05-01T18:42:17.526Z,21.30
2019-05-01T18:44:48.749Z,18.90
2019-05-01T18:47:18.426Z,18.93
2019-05-01T18:49:48.071Z,19.33
2019-05-01T18:52:20.300Z,22.00
2019-05-01T18:54:49.750Z,20.60
2019-05-01T18:57:19.279Z,21.17
2019-05-01T18:59:48.881Z,21.30
2019-05-01T19:02:20.414Z,21.63
2019-05-01T19:04:49.629Z,20.50
2019-05-01T19:07:19.545Z,20.53
2019-05-01T19:09:49.218Z,22.13
2019-05-01T19:12:20.209Z,22.00
2019-05-01T19:14:49.734Z,23.07
2019-05-01T19:17:19.171Z,22.07
2019-05-01T19:19:52.053Z,22.03
2019-05-01T19:22:21.739Z,22.53
2019-05-01T19:24:51.272Z,22.60
2019-05-01T19:27:22.772Z,23.50
2019-05-01T19:29:52.131Z,22.47
2019-05-01T19:32:22.079Z,22.27
2019-05-01T19:34:54.630Z,23.30
2019-05-01T19:37:27.489Z,22.13
2019-05-01T19:39:55.549Z,21.93
2019-05-01T19:42:25.950Z,22.23
2019-05-01T19:44:56.259Z,23.83
2019-05-01T19:47:26.581Z,23.93
2019-05-01T19:49:56.153Z,21.23
2019-05-01T19:52:25.677Z,25.17
2019-05-01T19:54:55.267Z,22.60
2019-05-01T19:57:24.692Z,25.70
2019-05-01T19:59:54.123Z,20.93
2019-05-01T20:02:24.065Z,21.30
2019-05-01T20:04:53.642Z,21.77
2019-05-01T20:07:23.168Z,20.67
2019-05-01T20:09:56.998Z,20.87
2019-05-01T20:12:24.025Z,21.67
2019-05-01T20:14:53.472Z,21.43
2019-05-01T20:17:22.907Z,22.87
2019-05-01T20:19:52.437Z,22.03
2019-05-01T20:22:21.866Z,21.50
2019-05-01T20:24:51.536Z,20.80
2019-05-01T20:27:21.224Z,22.00
2019-05-01T20:29:50.778Z,21.10
2019-05-01T20:32:25.690Z,23.07
2019-05-01T20:34:52.690Z,22.77
2019-05-01T20:37:22.584Z,22.60
2019-05-01T20:39:52.102Z,22.47
2019-05-01T20:42:21.535Z,22.30
2019-05-01T20:45:03.948Z,20.10
2019-05-01T20:47:34.427Z,22.53
2019-05-01T20:49:53.513Z,21.03
2019-05-01T20:52:22.953Z,22.80
2019-05-01T20:54:52.396Z,21.47
2019-05-01T20:57:32.594Z,22.40
2019-05-01T21:00:02.120Z,22.13
2019-05-01T21:02:33.225Z,21.07
2019-05-01T21:05:19.425Z,21.47
2019-05-01T21:08:05.393Z,24.73
2019-05-01T21:10:49.810Z,22.30
2019-05-01T21:13:07.770Z,22.80
2019-05-01T21:15:37.427Z,22.37
2019-05-01T21:18:07.816Z,22.73
2019-05-01T21:20:37.271Z,21.17
2019-05-01T21:23:10.577Z,24.17
2019-05-01T21:25:37.850Z,22.40
2019-05-01T21:28:07.609Z,25.00
2019-05-01T21:30:38.666Z,26.67
2019-05-01T21:33:11.389Z,26.03
2019-05-01T21:35:40.943Z,25.87
2019-05-01T21:38:12.195Z,26.90
2019-05-01T21:40:43.738Z,26.67
2019-05-01T21:43:13.620Z,24.23
2019-05-01T21:45:43.457Z,24.90
2019-05-01T21:48:13.448Z,25.87
2019-05-01T21:50:43.872Z,26.07
2019-05-01T21:53:16.348Z,26.10
2019-05-01T21:55:45.796Z,26.50
2019-05-01T21:58:21.050Z,29.00
2019-05-01T22:00:50.507Z,26.80
2019-05-01T22:03:21.513Z,29.33
2019-05-01T22:05:51.582Z,27.40
2019-05-01T22:08:21.174Z,28.87
2019-05-01T22:10:52.474Z,30.47
2019-05-01T22:13:24.370Z,27.03
2019-05-01T22:16:13.211Z,28.63
2019-05-01T22:18:46.996Z,28.33
2019-05-01T22:21:23.817Z,27.63
2019-05-01T22:23:57.719Z,29.20
2019-05-01T22:26:28.853Z,27.03
2019-05-01T22:28:59.938Z,26.03
2019-05-01T22:31:34.119Z,28.53
2019-05-01T22:34:05.268Z,26.67
2019-05-01T22:36:34.689Z,26.30
2019-05-01T22:39:06.104Z,25.87
2019-05-01T22:41:38.266Z,24.97
2019-05-01T22:44:07.890Z,25.00
2019-05-01T22:46:39.019Z,28.40
2019-05-01T22:49:08.460Z,30.50
2019-05-01T22:51:37.940Z,30.57
2019-05-01T22:54:07.388Z,29.87
2019-05-01T22:56:36.902Z,24.60
2019-05-01T22:59:07.906Z,23.93
2019-05-01T23:01:37.435Z,23.10
2019-05-01T23:04:07.709Z,23.97
2019-05-01T23:06:41.738Z,26.80
2019-05-01T23:09:11.221Z,27.77
2019-05-01T23:11:42.372Z,24.30
2019-05-01T23:14:13.471Z,24.60
2019-05-01T23:16:44.693Z,25.53
2019-05-01T23:19:14.113Z,26.13
2019-05-01T23:21:45.877Z,24.70
2019-05-01T23:24:15.417Z,25.80
2019-05-01T23:26:48.102Z,26.57
2019-05-01T23:29:16.047Z,23.47
2019-05-01T23:31:45.777Z,25.40
2019-05-01T23:34:15.185Z,26.67
2019-05-01T23:36:44.628Z,26.57
2019-05-01T23:39:14.768Z,29.60
2019-05-01T23:41:46.761Z,31.47
2019-05-01T23:44:15.399Z,25.83
2019-05-01T23:46:47.904Z,27.30
2019-05-01T23:49:17.396Z,27.20
2019-05-01T23:51:46.848Z,29.77
2019-05-01T23:54:16.297Z,27.63
2019-05-01T23:56:45.737Z,28.03
2019-05-01T23:59:19.936Z,25.87
